Terminal Aerodrome Forecast
Issued by NWS

Home | Current Version | Previous Version | Text Only | Print | Product List | Glossary On
Versions: 1 2 3 4 5 6 7 8 9 10 11 12 13 14 15 16 17 18 19
000
FTUS43 KJKL 041120
TAFSJS
TAF
KSJS 041120Z 0412/0512 25004KT P6SM SCT025 OVC080
     FM041500 26005KT P6SM FEW080 SCT150
     FM042100 24007KT 5SM -SHRA VCTS SCT030CB OVC060
     FM050200 26005KT P6SM VCSH OVC010
     FM050400 26005KT P6SM OVC003=

USA.gov is the U.S. government's official web portal to all federal, state and local government web resources and services.